LFAT/LTQ METAR and TAF weather

Enter ICAO airport designator
Station Type Date Time Source
LFAT METAR 2019/12/08 03:30 UTC NOAA

LFAT 080330Z AUTO 21010KT 180V250 9999 -RA SCT018 SCT025 OVC092 10/08 Q1006


Station Type Date Time Source
LFAT Decoded METAR 2019/12/08 03:30 UTC NOAA

Le Touquet, France (LFAT) 50-31N 001-37E 14M
Dec 07, 2019 - 10:30 PM EST / 2019.12.08 0330 UTC
Wind: from the SSW (210 degrees) at 12 MPH (10 KT) (direction variable):0
Visibility: greater than 7 mile(s):0
Sky conditions: overcast
Weather: light rain
Temperature: 50 F (10 C)
Dew Point: 46 F (8 C)
Relative Humidity: 87%
Pressure (altimeter): 29.71 in. Hg (1006 hPa)
ob: LFAT 080330Z AUTO 21010KT 180V250 9999 -RA SCT018 SCT025 OVC092 10/08 Q1006
cycle: 3

Station Type Date Time Source
LFAT TAF 2018/07/14 09:21 UTC NOAA

TAF TAF LFAT 140800Z 1409/1421 09004KT 8000 NSC
BECMG 1409/1411 30010KT

Example: see airport list